sensor_id;sensor_type;location;lat;lon;timestamp;temperature;humidity
48920;DHT22;34730;50.894;6.052;2022-09-09T00:00:11;14.60;99.90
48920;DHT22;34730;50.894;6.052;2022-09-09T00:00:53;14.50;99.90
48920;DHT22;34730;50.894;6.052;2022-09-09T00:02:28;14.50;99.90
48920;DHT22;34730;50.894;6.052;2022-09-09T00:04:13;14.50;99.90
48920;DHT22;34730;50.894;6.052;2022-09-09T00:05:31;14.50;99.90
48920;DHT22;34730;50.894;6.052;2022-09-09T00:06:33;14.40;99.90
48920;DHT22;34730;50.894;6.052;2022-09-09T00:07:38;14.40;99.90
48920;DHT22;34730;50.894;6.052;2022-09-09T00:08:19;14.40;99.90
48920;DHT22;34730;50.894;6.052;2022-09-09T00:09:21;14.40;99.90
48920;DHT22;34730;50.894;6.052;2022-09-09T00:10:00;14.50;99.90
48920;DHT22;34730;50.894;6.052;2022-09-09T00:10:37;14.50;99.90
48920;DHT22;34730;50.894;6.052;2022-09-09T00:11:13;14.50;99.90
48920;DHT22;34730;50.894;6.052;2022-09-09T00:12:54;14.50;99.90
48920;DHT22;34730;50.894;6.052;2022-09-09T00:13:34;14.40;99.90
48920;DHT22;34730;50.894;6.052;2022-09-09T00:15:37;14.30;99.90
48920;DHT22;34730;50.894;6.052;2022-09-09T00:16:53;14.30;99.90
48920;DHT22;34730;50.894;6.052;2022-09-09T00:17:43;14.30;99.90
48920;DHT22;34730;50.894;6.052;2022-09-09T00:19:04;14.30;99.90
48920;DHT22;34730;50.894;6.052;2022-09-09T00:20:45;14.40;99.90
48920;DHT22;34730;50.894;6.052;2022-09-09T00:21:18;14.40;99.90
48920;DHT22;34730;50.894;6.052;2022-09-09T00:22:38;14.40;99.90
48920;DHT22;34730;50.894;6.052;2022-09-09T00:23:55;14.40;99.90
48920;DHT22;34730;50.894;6.052;2022-09-09T00:25:11;14.40;99.90
48920;DHT22;34730;50.894;6.052;2022-09-09T00:26:48;14.40;99.90
48920;DHT22;34730;50.894;6.052;2022-09-09T00:28:20;14.40;99.90
48920;DHT22;34730;50.894;6.052;2022-09-09T00:29:43;14.40;99.90
48920;DHT22;34730;50.894;6.052;2022-09-09T00:30:22;14.30;99.90
48920;DHT22;34730;50.894;6.052;2022-09-09T00:30:55;14.40;99.90
48920;DHT22;34730;50.894;6.052;2022-09-09T00:31:29;14.30;99.90
48920;DHT22;34730;50.894;6.052;2022-09-09T00:32:11;14.30;99.90
48920;DHT22;34730;50.894;6.052;2022-09-09T00:32:43;14.30;99.90
48920;DHT22;34730;50.894;6.052;2022-09-09T00:33:17;14.30;99.90
48920;DHT22;34730;50.894;6.052;2022-09-09T00:33:55;14.30;99.90
48920;DHT22;34730;50.894;6.052;2022-09-09T00:34:29;14.30;99.90
48920;DHT22;34730;50.894;6.052;2022-09-09T00:35:43;14.30;99.90
48920;DHT22;34730;50.894;6.052;2022-09-09T00:36:13;14.20;99.90
48920;DHT22;34730;50.894;6.052;2022-09-09T00:36:49;14.30;99.90
48920;DHT22;34730;50.894;6.052;2022-09-09T00:37:22;14.20;99.90
48920;DHT22;34730;50.894;6.052;2022-09-09T00:38:00;14.20;99.90
48920;DHT22;34730;50.894;6.052;2022-09-09T00:39:03;14.20;99.90
48920;DHT22;34730;50.894;6.052;2022-09-09T00:39:41;14.20;99.90
48920;DHT22;34730;50.894;6.052;2022-09-09T00:40:46;14.20;99.90
48920;DHT22;34730;50.894;6.052;2022-09-09T00:42:07;14.20;99.90
48920;DHT22;34730;50.894;6.052;2022-09-09T00:42:43;14.20;99.90
48920;DHT22;34730;50.894;6.052;2022-09-09T00:43:30;14.30;99.90
48920;DHT22;34730;50.894;6.052;2022-09-09T00:45:05;14.30;99.90
48920;DHT22;34730;50.894;6.052;2022-09-09T00:47:50;14.30;99.90
48920;DHT22;34730;50.894;6.052;2022-09-09T00:48:22;14.30;99.90
48920;DHT22;34730;50.894;6.052;2022-09-09T00:50:00;14.30;99.90
48920;DHT22;34730;50.894;6.052;2022-09-09T00:51:23;14.30;99.90
48920;DHT22;34730;50.894;6.052;2022-09-09T00:56:22;14.30;99.90
48920;DHT22;34730;50.894;6.052;2022-09-09T00:57:19;14.30;99.90
48920;DHT22;34730;50.894;6.052;2022-09-09T00:57:53;14.30;99.90
48920;DHT22;34730;50.894;6.052;2022-09-09T00:58:26;14.30;99.90
48920;DHT22;34730;50.894;6.052;2022-09-09T00:59:12;14.30;99.90
48920;DHT22;34730;50.894;6.052;2022-09-09T00:59:54;14.30;99.90
48920;DHT22;34730;50.894;6.052;2022-09-09T01:00:45;14.30;99.90
48920;DHT22;34730;50.894;6.052;2022-09-09T01:01:18;14.30;99.90
48920;DHT22;34730;50.894;6.052;2022-09-09T01:01:48;14.30;99.90
48920;DHT22;34730;50.894;6.052;2022-09-09T01:02:26;14.40;99.90
48920;DHT22;34730;50.894;6.052;2022-09-09T01:04:32;14.40;99.90
48920;DHT22;34730;50.894;6.052;2022-09-09T01:05:12;14.40;99.90
48920;DHT22;34730;50.894;6.052;2022-09-09T01:06:36;14.40;99.90
48920;DHT22;34730;50.894;6.052;2022-09-09T01:07:16;14.40;99.90
48920;DHT22;34730;50.894;6.052;2022-09-09T01:07:49;14.50;99.90
48920;DHT22;34730;50.894;6.052;2022-09-09T01:08:48;14.50;99.90
48920;DHT22;34730;50.894;6.052;2022-09-09T01:09:26;14.50;99.90
48920;DHT22;34730;50.894;6.052;2022-09-09T01:10:11;14.50;99.90
48920;DHT22;34730;50.894;6.052;2022-09-09T01:10:51;14.50;99.90
48920;DHT22;34730;50.894;6.052;2022-09-09T01:11:30;14.50;99.90
48920;DHT22;34730;50.894;6.052;2022-09-09T01:12:28;14.50;99.90
48920;DHT22;34730;50.894;6.052;2022-09-09T01:13:05;14.50;99.90
48920;DHT22;34730;50.894;6.052;2022-09-09T01:13:41;14.50;99.90
48920;DHT22;34730;50.894;6.052;2022-09-09T01:14:29;14.60;99.90
48920;DHT22;34730;50.894;6.052;2022-09-09T01:15:08;14.60;99.90
48920;DHT22;34730;50.894;6.052;2022-09-09T01:16:07;14.50;99.90
48920;DHT22;34730;50.894;6.052;2022-09-09T01:16:42;14.60;99.90
48920;DHT22;34730;50.894;6.052;2022-09-09T01:18:15;14.50;99.90
48920;DHT22;34730;50.894;6.052;2022-09-09T01:18:52;14.50;99.90
48920;DHT22;34730;50.894;6.052;2022-09-09T01:21:02;14.50;99.90
48920;DHT22;34730;50.894;6.052;2022-09-09T01:24:42;14.60;99.90
48920;DHT22;34730;50.894;6.052;2022-09-09T01:26:37;14.70;99.90
48920;DHT22;34730;50.894;6.052;2022-09-09T01:27:13;14.70;99.90
48920;DHT22;34730;50.894;6.052;2022-09-09T01:27:48;14.60;99.90
48920;DHT22;34730;50.894;6.052;2022-09-09T01:28:26;14.70;99.90
48920;DHT22;34730;50.894;6.052;2022-09-09T01:29:02;14.70;99.90
48920;DHT22;34730;50.894;6.052;2022-09-09T01:29:40;14.70;99.90
48920;DHT22;34730;50.894;6.052;2022-09-09T01:30:16;14.70;99.90
48920;DHT22;34730;50.894;6.052;2022-09-09T01:30:48;14.60;99.90
48920;DHT22;34730;50.894;6.052;2022-09-09T01:31:32;14.70;99.90
48920;DHT22;34730;50.894;6.052;2022-09-09T01:33:16;14.70;99.90
48920;DHT22;34730;50.894;6.052;2022-09-09T01:33:48;14.70;99.90
48920;DHT22;34730;50.894;6.052;2022-09-09T01:34:20;14.70;99.90
48920;DHT22;34730;50.894;6.052;2022-09-09T01:34:55;14.70;99.90
48920;DHT22;34730;50.894;6.052;2022-09-09T01:35:31;14.70;99.90
48920;DHT22;34730;50.894;6.052;2022-09-09T01:36:57;14.70;99.90
48920;DHT22;34730;50.894;6.052;2022-09-09T01:37:28;14.70;99.90
48920;DHT22;34730;50.894;6.052;2022-09-09T01:37:59;14.70;99.90
48920;DHT22;34730;50.894;6.052;2022-09-09T01:38:31;14.70;99.90
48920;DHT22;34730;50.894;6.052;2022-09-09T01:39:05;14.70;99.90
48920;DHT22;34730;50.894;6.052;2022-09-09T01:39:40;14.70;99.90
48920;DHT22;34730;50.894;6.052;2022-09-09T01:40:14;14.60;99.90
48920;DHT22;34730;50.894;6.052;2022-09-09T01:40:45;14.70;99.90
48920;DHT22;34730;50.894;6.052;2022-09-09T01:41:17;14.70;99.90
48920;DHT22;34730;50.894;6.052;2022-09-09T01:41:55;14.70;99.90
48920;DHT22;34730;50.894;6.052;2022-09-09T01:42:26;14.70;99.90
48920;DHT22;34730;50.894;6.052;2022-09-09T01:42:59;14.70;99.90
48920;DHT22;34730;50.894;6.052;2022-09-09T01:43:30;14.70;99.90
48920;DHT22;34730;50.894;6.052;2022-09-09T01:44:02;14.70;99.90
48920;DHT22;34730;50.894;6.052;2022-09-09T01:44:38;14.70;99.90
48920;DHT22;34730;50.894;6.052;2022-09-09T01:45:10;14.70;99.90
48920;DHT22;34730;50.894;6.052;2022-09-09T01:45:42;14.70;99.90
48920;DHT22;34730;50.894;6.052;2022-09-09T01:46:14;14.70;99.90
48920;DHT22;34730;50.894;6.052;2022-09-09T01:46:47;14.70;99.90
48920;DHT22;34730;50.894;6.052;2022-09-09T01:47:22;14.70;99.90
48920;DHT22;34730;50.894;6.052;2022-09-09T01:48:21;14.80;99.90
48920;DHT22;34730;50.894;6.052;2022-09-09T01:49:05;14.70;99.90
48920;DHT22;34730;50.894;6.052;2022-09-09T01:49:37;14.70;99.90
48920;DHT22;34730;50.894;6.052;2022-09-09T01:50:16;14.80;99.90
48920;DHT22;34730;50.894;6.052;2022-09-09T01:50:47;14.70;99.90
48920;DHT22;34730;50.894;6.052;2022-09-09T01:51:21;14.70;99.90
48920;DHT22;34730;50.894;6.052;2022-09-09T01:51:54;14.70;99.90
48920;DHT22;34730;50.894;6.052;2022-09-09T01:52:33;14.70;99.90
48920;DHT22;34730;50.894;6.052;2022-09-09T01:53:07;14.80;99.90
48920;DHT22;34730;50.894;6.052;2022-09-09T01:53:41;14.70;99.90
48920;DHT22;34730;50.894;6.052;2022-09-09T01:54:14;14.70;99.90
48920;DHT22;34730;50.894;6.052;2022-09-09T01:54:45;14.70;99.90
48920;DHT22;34730;50.894;6.052;2022-09-09T01:55:41;14.70;99.90
48920;DHT22;34730;50.894;6.052;2022-09-09T01:57:25;14.70;99.90
48920;DHT22;34730;50.894;6.052;2022-09-09T02:00:10;14.80;99.90
48920;DHT22;34730;50.894;6.052;2022-09-09T02:01:06;14.80;99.90
48920;DHT22;34730;50.894;6.052;2022-09-09T02:03:23;14.80;99.90
48920;DHT22;34730;50.894;6.052;2022-09-09T02:04:22;14.80;99.90
48920;DHT22;34730;50.894;6.052;2022-09-09T02:05:17;14.80;99.90
48920;DHT22;34730;50.894;6.052;2022-09-09T02:06:26;14.80;99.90
48920;DHT22;34730;50.894;6.052;2022-09-09T02:07:10;14.80;99.90
48920;DHT22;34730;50.894;6.052;2022-09-09T02:07:48;14.80;99.90
48920;DHT22;34730;50.894;6.052;2022-09-09T02:09:11;14.90;99.90
48920;DHT22;34730;50.894;6.052;2022-09-09T02:09:49;14.90;99.90
48920;DHT22;34730;50.894;6.052;2022-09-09T02:10:30;14.90;99.90
48920;DHT22;34730;50.894;6.052;2022-09-09T02:11:21;14.90;99.90
48920;DHT22;34730;50.894;6.052;2022-09-09T02:12:05;14.90;99.90
48920;DHT22;34730;50.894;6.052;2022-09-09T02:12:48;14.90;99.90
48920;DHT22;34730;50.894;6.052;2022-09-09T02:13:25;15.00;99.90
48920;DHT22;34730;50.894;6.052;2022-09-09T02:14:15;15.00;99.90
48920;DHT22;34730;50.894;6.052;2022-09-09T02:14:56;15.00;99.90
48920;DHT22;34730;50.894;6.052;2022-09-09T02:15:34;15.00;99.90
48920;DHT22;34730;50.894;6.052;2022-09-09T02:16:15;15.00;99.90
48920;DHT22;34730;50.894;6.052;2022-09-09T02:16:56;15.00;99.90
48920;DHT22;34730;50.894;6.052;2022-09-09T02:17:38;15.00;99.90
48920;DHT22;34730;50.894;6.052;2022-09-09T02:18:22;15.00;99.90
48920;DHT22;34730;50.894;6.052;2022-09-09T02:19:01;15.00;99.90
48920;DHT22;34730;50.894;6.052;2022-09-09T02:19:56;15.10;99.90
48920;DHT22;34730;50.894;6.052;2022-09-09T02:20:43;15.10;99.90
48920;DHT22;34730;50.894;6.052;2022-09-09T02:21:16;15.10;99.90
48920;DHT22;34730;50.894;6.052;2022-09-09T02:21:48;15.10;99.90
48920;DHT22;34730;50.894;6.052;2022-09-09T02:22:20;15.10;99.90
48920;DHT22;34730;50.894;6.052;2022-09-09T02:22:54;15.10;99.90
48920;DHT22;34730;50.894;6.052;2022-09-09T02:23:28;15.10;99.90
48920;DHT22;34730;50.894;6.052;2022-09-09T02:24:03;15.10;99.90
48920;DHT22;34730;50.894;6.052;2022-09-09T02:24:40;15.10;99.90
48920;DHT22;34730;50.894;6.052;2022-09-09T02:25:27;15.10;99.90
48920;DHT22;34730;50.894;6.052;2022-09-09T02:26:04;15.10;99.90
48920;DHT22;34730;50.894;6.052;2022-09-09T02:26:40;15.10;99.90
48920;DHT22;34730;50.894;6.052;2022-09-09T02:27:13;15.10;99.90
48920;DHT22;34730;50.894;6.052;2022-09-09T02:27:50;15.20;99.90
48920;DHT22;34730;50.894;6.052;2022-09-09T02:28:25;15.20;99.90
48920;DHT22;34730;50.894;6.052;2022-09-09T02:29:00;15.20;99.90
48920;DHT22;34730;50.894;6.052;2022-09-09T02:29:37;15.20;99.90
48920;DHT22;34730;50.894;6.052;2022-09-09T02:30:09;15.30;99.90
48920;DHT22;34730;50.894;6.052;2022-09-09T02:30:46;15.30;99.90
48920;DHT22;34730;50.894;6.052;2022-09-09T02:31:25;15.30;99.90
48920;DHT22;34730;50.894;6.052;2022-09-09T02:32:01;15.20;99.90
48920;DHT22;34730;50.894;6.052;2022-09-09T02:32:38;15.20;99.90
48920;DHT22;34730;50.894;6.052;2022-09-09T02:33:14;15.20;99.90
48920;DHT22;34730;50.894;6.052;2022-09-09T02:33:59;15.20;99.90
48920;DHT22;34730;50.894;6.052;2022-09-09T02:34:34;15.20;99.90
48920;DHT22;34730;50.894;6.052;2022-09-09T02:35:12;15.20;99.90
48920;DHT22;34730;50.894;6.052;2022-09-09T02:35:46;15.20;99.90
48920;DHT22;34730;50.894;6.052;2022-09-09T02:36:26;15.20;99.90
48920;DHT22;34730;50.894;6.052;2022-09-09T02:37:00;15.20;99.90
48920;DHT22;34730;50.894;6.052;2022-09-09T02:37:36;15.20;99.90
48920;DHT22;34730;50.894;6.052;2022-09-09T02:38:11;15.20;99.90
48920;DHT22;34730;50.894;6.052;2022-09-09T02:38:55;15.20;99.90
48920;DHT22;34730;50.894;6.052;2022-09-09T02:39:30;15.20;99.90
48920;DHT22;34730;50.894;6.052;2022-09-09T02:40:05;15.30;99.90
48920;DHT22;34730;50.894;6.052;2022-09-09T02:40:40;15.30;99.90
48920;DHT22;34730;50.894;6.052;2022-09-09T02:41:11;15.30;99.90
48920;DHT22;34730;50.894;6.052;2022-09-09T02:41:42;15.20;99.90
48920;DHT22;34730;50.894;6.052;2022-09-09T02:42:19;15.30;99.90
48920;DHT22;34730;50.894;6.052;2022-09-09T02:42:50;15.30;99.90
48920;DHT22;34730;50.894;6.052;2022-09-09T02:43:22;15.30;99.90
48920;DHT22;34730;50.894;6.052;2022-09-09T02:43:54;15.30;99.90
48920;DHT22;34730;50.894;6.052;2022-09-09T02:44:25;15.30;99.90
48920;DHT22;34730;50.894;6.052;2022-09-09T02:44:56;15.30;99.90
48920;DHT22;34730;50.894;6.052;2022-09-09T02:45:40;15.30;99.90
48920;DHT22;34730;50.894;6.052;2022-09-09T02:47:34;15.40;99.90
48920;DHT22;34730;50.894;6.052;2022-09-09T02:48:24;15.30;99.90
48920;DHT22;34730;50.894;6.052;2022-09-09T02:49:09;15.40;99.90
48920;DHT22;34730;50.894;6.052;2022-09-09T02:50:38;15.40;99.90
48920;DHT22;34730;50.894;6.052;2022-09-09T02:51:19;15.40;99.90
48920;DHT22;34730;50.894;6.052;2022-09-09T02:52:59;15.50;99.90
48920;DHT22;34730;50.894;6.052;2022-09-09T02:53:59;15.40;99.90
48920;DHT22;34730;50.894;6.052;2022-09-09T02:54:40;15.40;99.90
48920;DHT22;34730;50.894;6.052;2022-09-09T02:56:15;15.50;99.90
48920;DHT22;34730;50.894;6.052;2022-09-09T02:56:53;15.50;99.90
48920;DHT22;34730;50.894;6.052;2022-09-09T02:57:31;15.50;99.90
48920;DHT22;34730;50.894;6.052;2022-09-09T02:58:06;15.50;99.90
48920;DHT22;34730;50.894;6.052;2022-09-09T02:58:39;15.50;99.90
48920;DHT22;34730;50.894;6.052;2022-09-09T02:59:11;15.50;99.90
48920;DHT22;34730;50.894;6.052;2022-09-09T02:59:46;15.50;99.90
48920;DHT22;34730;50.894;6.052;2022-09-09T03:00:24;15.50;99.90
48920;DHT22;34730;50.894;6.052;2022-09-09T03:00:56;15.50;99.90
48920;DHT22;34730;50.894;6.052;2022-09-09T03:01:29;15.50;99.90
48920;DHT22;34730;50.894;6.052;2022-09-09T03:01:59;15.50;99.90
48920;DHT22;34730;50.894;6.052;2022-09-09T03:02:33;15.50;99.90
48920;DHT22;34730;50.894;6.052;2022-09-09T03:03:08;15.60;99.90
48920;DHT22;34730;50.894;6.052;2022-09-09T03:03:41;15.60;99.90
48920;DHT22;34730;50.894;6.052;2022-09-09T03:04:16;15.60;99.90
48920;DHT22;34730;50.894;6.052;2022-09-09T03:04:49;15.60;99.90
48920;DHT22;34730;50.894;6.052;2022-09-09T03:05:22;15.60;99.90
48920;DHT22;34730;50.894;6.052;2022-09-09T03:05:54;15.60;99.90
48920;DHT22;34730;50.894;6.052;2022-09-09T03:06:25;15.60;99.90
48920;DHT22;34730;50.894;6.052;2022-09-09T03:07:06;15.60;99.90
48920;DHT22;34730;50.894;6.052;2022-09-09T03:07:37;15.60;99.90
48920;DHT22;34730;50.894;6.052;2022-09-09T03:08:12;15.60;99.90
48920;DHT22;34730;50.894;6.052;2022-09-09T03:08:43;15.60;99.90
48920;DHT22;34730;50.894;6.052;2022-09-09T03:09:15;15.60;99.90
48920;DHT22;34730;50.894;6.052;2022-09-09T03:09:46;15.60;99.90
48920;DHT22;34730;50.894;6.052;2022-09-09T03:10:17;15.60;99.90
48920;DHT22;34730;50.894;6.052;2022-09-09T03:10:48;15.70;99.90
48920;DHT22;34730;50.894;6.052;2022-09-09T03:11:19;15.70;99.90
48920;DHT22;34730;50.894;6.052;2022-09-09T03:11:50;15.70;99.90
48920;DHT22;34730;50.894;6.052;2022-09-09T03:12:22;15.70;99.90
48920;DHT22;34730;50.894;6.052;2022-09-09T03:12:55;15.70;99.90
48920;DHT22;34730;50.894;6.052;2022-09-09T03:13:26;15.70;99.90
48920;DHT22;34730;50.894;6.052;2022-09-09T03:13:59;15.70;99.90
48920;DHT22;34730;50.894;6.052;2022-09-09T03:14:32;15.70;99.90
48920;DHT22;34730;50.894;6.052;2022-09-09T03:15:03;15.70;99.90
48920;DHT22;34730;50.894;6.052;2022-09-09T03:15:34;15.70;99.90
48920;DHT22;34730;50.894;6.052;2022-09-09T03:16:08;15.70;99.90
48920;DHT22;34730;50.894;6.052;2022-09-09T03:16:45;15.70;99.90
48920;DHT22;34730;50.894;6.052;2022-09-09T03:17:16;15.70;99.90
48920;DHT22;34730;50.894;6.052;2022-09-09T03:17:54;15.70;99.90
48920;DHT22;34730;50.894;6.052;2022-09-09T03:18:26;15.70;99.90
48920;DHT22;34730;50.894;6.052;2022-09-09T03:18:58;15.70;99.90
48920;DHT22;34730;50.894;6.052;2022-09-09T03:19:29;15.70;99.90
48920;DHT22;34730;50.894;6.052;2022-09-09T03:20:04;15.70;99.90
48920;DHT22;34730;50.894;6.052;2022-09-09T03:20:35;15.70;99.90
48920;DHT22;34730;50.894;6.052;2022-09-09T03:21:06;15.70;99.90
48920;DHT22;34730;50.894;6.052;2022-09-09T03:21:37;15.70;99.90
48920;DHT22;34730;50.894;6.052;2022-09-09T03:22:10;15.70;99.90
48920;DHT22;34730;50.894;6.052;2022-09-09T03:22:44;15.70;99.90
48920;DHT22;34730;50.894;6.052;2022-09-09T03:23:18;15.70;99.90
48920;DHT22;34730;50.894;6.052;2022-09-09T03:23:54;15.70;99.90
48920;DHT22;34730;50.894;6.052;2022-09-09T03:24:25;15.70;99.90
48920;DHT22;34730;50.894;6.052;2022-09-09T03:24:56;15.70;99.90
48920;DHT22;34730;50.894;6.052;2022-09-09T03:25:27;15.70;99.90
48920;DHT22;34730;50.894;6.052;2022-09-09T03:25:59;15.70;99.90
48920;DHT22;34730;50.894;6.052;2022-09-09T03:26:41;15.70;99.90
48920;DHT22;34730;50.894;6.052;2022-09-09T03:27:16;15.70;99.90
48920;DHT22;34730;50.894;6.052;2022-09-09T03:27:47;15.70;99.90
48920;DHT22;34730;50.894;6.052;2022-09-09T03:28:18;15.70;99.90
48920;DHT22;34730;50.894;6.052;2022-09-09T03:28:52;15.70;99.90
48920;DHT22;34730;50.894;6.052;2022-09-09T03:29:27;15.70;99.90
48920;DHT22;34730;50.894;6.052;2022-09-09T03:30:03;15.70;99.90
48920;DHT22;34730;50.894;6.052;2022-09-09T03:30:36;15.70;99.90
48920;DHT22;34730;50.894;6.052;2022-09-09T03:31:08;15.60;99.90
48920;DHT22;34730;50.894;6.052;2022-09-09T03:31:43;15.60;99.90
48920;DHT22;34730;50.894;6.052;2022-09-09T03:32:18;15.60;99.90
48920;DHT22;34730;50.894;6.052;2022-09-09T03:32:51;15.60;99.90
48920;DHT22;34730;50.894;6.052;2022-09-09T03:33:25;15.60;99.90
48920;DHT22;34730;50.894;6.052;2022-09-09T03:33:58;15.60;99.90
48920;DHT22;34730;50.894;6.052;2022-09-09T03:34:30;15.60;99.90
48920;DHT22;34730;50.894;6.052;2022-09-09T03:35:03;15.60;99.90
48920;DHT22;34730;50.894;6.052;2022-09-09T03:35:35;15.60;99.90
48920;DHT22;34730;50.894;6.052;2022-09-09T03:36:11;15.60;99.90
48920;DHT22;34730;50.894;6.052;2022-09-09T03:36:42;15.60;99.90
48920;DHT22;34730;50.894;6.052;2022-09-09T03:37:13;15.60;99.90
48920;DHT22;34730;50.894;6.052;2022-09-09T03:37:44;15.60;99.90
48920;DHT22;34730;50.894;6.052;2022-09-09T03:38:18;15.60;99.90
48920;DHT22;34730;50.894;6.052;2022-09-09T03:38:49;15.60;99.90
48920;DHT22;34730;50.894;6.052;2022-09-09T03:39:21;15.60;99.90
48920;DHT22;34730;50.894;6.052;2022-09-09T03:39:52;15.60;99.90
48920;DHT22;34730;50.894;6.052;2022-09-09T03:40:28;15.60;99.90
48920;DHT22;34730;50.894;6.052;2022-09-09T03:41:02;15.60;99.90
48920;DHT22;34730;50.894;6.052;2022-09-09T03:41:34;15.60;99.90
48920;DHT22;34730;50.894;6.052;2022-09-09T03:42:06;15.60;99.90
48920;DHT22;34730;50.894;6.052;2022-09-09T03:42:39;15.60;99.90
48920;DHT22;34730;50.894;6.052;2022-09-09T03:43:10;15.60;99.90
48920;DHT22;34730;50.894;6.052;2022-09-09T03:43:41;15.60;99.90
48920;DHT22;34730;50.894;6.052;2022-09-09T03:44:12;15.60;99.90
48920;DHT22;34730;50.894;6.052;2022-09-09T03:44:46;15.60;99.90
48920;DHT22;34730;50.894;6.052;2022-09-09T03:45:25;15.60;99.90
48920;DHT22;34730;50.894;6.052;2022-09-09T03:45:56;15.60;99.90
48920;DHT22;34730;50.894;6.052;2022-09-09T03:46:28;15.60;99.90
48920;DHT22;34730;50.894;6.052;2022-09-09T03:46:59;15.50;99.90
48920;DHT22;34730;50.894;6.052;2022-09-09T03:47:32;15.50;99.90
48920;DHT22;34730;50.894;6.052;2022-09-09T03:48:11;15.60;99.90
48920;DHT22;34730;50.894;6.052;2022-09-09T03:48:42;15.60;99.90
48920;DHT22;34730;50.894;6.052;2022-09-09T03:49:13;15.50;99.90
48920;DHT22;34730;50.894;6.052;2022-09-09T03:49:44;15.50;99.90
48920;DHT22;34730;50.894;6.052;2022-09-09T03:50:15;15.60;99.90
48920;DHT22;34730;50.894;6.052;2022-09-09T03:50:52;15.60;99.90
48920;DHT22;34730;50.894;6.052;2022-09-09T03:51:25;15.60;99.90
48920;DHT22;34730;50.894;6.052;2022-09-09T03:51:56;15.60;99.90
48920;DHT22;34730;50.894;6.052;2022-09-09T03:52:28;15.50;99.90
48920;DHT22;34730;50.894;6.052;2022-09-09T03:52:59;15.60;99.90
48920;DHT22;34730;50.894;6.052;2022-09-09T03:53:30;15.50;99.90
48920;DHT22;34730;50.894;6.052;2022-09-09T03:54:02;15.50;99.90
48920;DHT22;34730;50.894;6.052;2022-09-09T03:54:35;15.50;99.90
48920;DHT22;34730;50.894;6.052;2022-09-09T03:55:06;15.50;99.90
48920;DHT22;34730;50.894;6.052;2022-09-09T03:55:37;15.50;99.90
48920;DHT22;34730;50.894;6.052;2022-09-09T03:56:08;15.50;99.90
48920;DHT22;34730;50.894;6.052;2022-09-09T03:56:39;15.50;99.90
48920;DHT22;34730;50.894;6.052;2022-09-09T03:57:13;15.50;99.90
48920;DHT22;34730;50.894;6.052;2022-09-09T03:57:47;15.50;99.90
48920;DHT22;34730;50.894;6.052;2022-09-09T03:58:17;15.50;99.90
48920;DHT22;34730;50.894;6.052;2022-09-09T03:58:52;15.50;99.90
48920;DHT22;34730;50.894;6.052;2022-09-09T03:59:22;15.50;99.90
48920;DHT22;34730;50.894;6.052;2022-09-09T03:59:56;15.40;99.90
48920;DHT22;34730;50.894;6.052;2022-09-09T04:00:27;15.40;99.90
48920;DHT22;34730;50.894;6.052;2022-09-09T04:01:01;15.40;99.90
48920;DHT22;34730;50.894;6.052;2022-09-09T04:01:34;15.40;99.90
48920;DHT22;34730;50.894;6.052;2022-09-09T04:02:05;15.40;99.90
48920;DHT22;34730;50.894;6.052;2022-09-09T04:02:36;15.40;99.90
48920;DHT22;34730;50.894;6.052;2022-09-09T04:03:09;15.40;99.90
48920;DHT22;34730;50.894;6.052;2022-09-09T04:03:41;15.40;99.90
48920;DHT22;34730;50.894;6.052;2022-09-09T04:04:12;15.40;99.90
48920;DHT22;34730;50.894;6.052;2022-09-09T04:04:43;15.40;99.90
48920;DHT22;34730;50.894;6.052;2022-09-09T04:05:14;15.40;99.90
48920;DHT22;34730;50.894;6.052;2022-09-09T04:05:49;15.50;99.90
48920;DHT22;34730;50.894;6.052;2022-09-09T04:06:22;15.50;99.90
48920;DHT22;34730;50.894;6.052;2022-09-09T04:06:53;15.50;99.90
48920;DHT22;34730;50.894;6.052;2022-09-09T04:07:27;15.50;99.90
48920;DHT22;34730;50.894;6.052;2022-09-09T04:08:00;15.50;99.90
48920;DHT22;34730;50.894;6.052;2022-09-09T04:08:31;15.50;99.90
48920;DHT22;34730;50.894;6.052;2022-09-09T04:09:05;15.50;99.90
48920;DHT22;34730;50.894;6.052;2022-09-09T04:09:36;15.50;99.90
48920;DHT22;34730;50.894;6.052;2022-09-09T04:10:07;15.50;99.90
48920;DHT22;34730;50.894;6.052;2022-09-09T04:10:40;15.50;99.90
48920;DHT22;34730;50.894;6.052;2022-09-09T04:11:10;15.50;99.90
48920;DHT22;34730;50.894;6.052;2022-09-09T04:11:42;15.50;99.90
48920;DHT22;34730;50.894;6.052;2022-09-09T04:12:13;15.50;99.90
48920;DHT22;34730;50.894;6.052;2022-09-09T04:12:44;15.50;99.90
48920;DHT22;34730;50.894;6.052;2022-09-09T04:13:18;15.60;99.90
48920;DHT22;34730;50.894;6.052;2022-09-09T04:13:51;15.60;99.90
48920;DHT22;34730;50.894;6.052;2022-09-09T04:14:22;15.60;99.90
48920;DHT22;34730;50.894;6.052;2022-09-09T04:14:56;15.60;99.90
48920;DHT22;34730;50.894;6.052;2022-09-09T04:15:27;15.60;99.90
48920;DHT22;34730;50.894;6.052;2022-09-09T04:16:00;15.60;99.90
48920;DHT22;34730;50.894;6.052;2022-09-09T04:16:34;15.70;99.90
48920;DHT22;34730;50.894;6.052;2022-09-09T04:17:07;15.70;99.90
48920;DHT22;34730;50.894;6.052;2022-09-09T04:17:38;15.70;99.90
48920;DHT22;34730;50.894;6.052;2022-09-09T04:18:09;15.70;99.90
48920;DHT22;34730;50.894;6.052;2022-09-09T04:18:42;15.70;99.90
48920;DHT22;34730;50.894;6.052;2022-09-09T04:19:13;15.70;99.90
48920;DHT22;34730;50.894;6.052;2022-09-09T04:19:46;15.80;99.90
48920;DHT22;34730;50.894;6.052;2022-09-09T04:20:17;15.70;99.90
48920;DHT22;34730;50.894;6.052;2022-09-09T04:20:51;15.80;99.90
48920;DHT22;34730;50.894;6.052;2022-09-09T04:21:25;15.80;99.90
48920;DHT22;34730;50.894;6.052;2022-09-09T04:21:57;15.80;99.90
48920;DHT22;34730;50.894;6.052;2022-09-09T04:22:28;15.80;99.90
48920;DHT22;34730;50.894;6.052;2022-09-09T04:22:58;15.80;99.90
48920;DHT22;34730;50.894;6.052;2022-09-09T04:23:33;15.80;99.90
48920;DHT22;34730;50.894;6.052;2022-09-09T04:24:06;15.80;99.90
48920;DHT22;34730;50.894;6.052;2022-09-09T04:24:37;15.80;99.90
48920;DHT22;34730;50.894;6.052;2022-09-09T04:25:13;15.80;99.90
48920;DHT22;34730;50.894;6.052;2022-09-09T04:25:48;15.90;99.90
48920;DHT22;34730;50.894;6.052;2022-09-09T04:26:19;15.80;99.90
48920;DHT22;34730;50.894;6.052;2022-09-09T04:26:50;15.80;99.90
48920;DHT22;34730;50.894;6.052;2022-09-09T04:27:21;15.80;99.90
48920;DHT22;34730;50.894;6.052;2022-09-09T04:27:58;15.80;99.90
48920;DHT22;34730;50.894;6.052;2022-09-09T04:28:30;15.80;99.90
48920;DHT22;34730;50.894;6.052;2022-09-09T04:29:04;15.80;99.90
48920;DHT22;34730;50.894;6.052;2022-09-09T04:29:39;15.80;99.90
48920;DHT22;34730;50.894;6.052;2022-09-09T04:30:10;15.80;99.90
48920;DHT22;34730;50.894;6.052;2022-09-09T04:30:46;15.90;99.90
48920;DHT22;34730;50.894;6.052;2022-09-09T04:31:19;15.90;99.90